Airfield :
LOGIN :

Register | Disclaimer

   EN    FR    IT 

 










Legend :    VFR   Marginal VFR   IFR   Intensive IFR   Very Intensive IFR
Visi :
Ceiling :
>= 8 km
>= 3000ft
5 to 8 km
1000 to 3000 ft
1500m to 5 km
500 to 1000 ft
800 to 1500m
200 to 500 ft
< 800m
< 200 ft
Symbols :   Thunderstorms  Fog  Heavy snow  Heavy precipitations  Wind > 20 kt
SIGMETs :     Misc.  Thunderstorms  Icing  Turbulence  Mountain Waves  Volcanic Ashes







- Airport Elevation : 146 ft
- IATA code : RKE


EKRK - Roskilde Tune

CURRENT METAR :
  • 181650Z AUTO 15007KT 9999NDV NCD 21/13 Q1009

EXPIRED METARs :
  • 181620Z AUTO 17008KT 9999NDV NCD 24/11 Q1009
  • 181550Z AUTO 18010KT 9999NDV NCD 25/11 Q1009
  • 181520Z AUTO 19013KT 9999NDV NCD 26/10 Q1010
  • 181450Z AUTO 20013KT 9999NDV NCD 26/10 Q1010
  • 181420Z AUTO 19013KT 9999NDV NCD 26/11 Q1010

TAF TAF EKRK
Valid from the 18 at 15:00 until the 19 at 00:00 UTC


181423Z 1815/1824 19012KT CAVOK
BECMG 1818/1820 26010KT
No reported NOTAMs for that airfield.



MET'MAP, your aeronautical weather chart ! - Copyright ORBIFLY December 2007 - Disclaimer

ORBIFLY MET'MAP TEAM :

Programming & Development : Alexandra Zaïnal
Concept & Development : Baudouin d'Aumeries
Co-Development & Prog : Marc-Olivier Méhu
Technical & hardware support : Manuel Goepfert

Contact : metmap@orbifly.com




SOURCES & CREDITS :

   NOAA